Other Surface Observations
Issued by NWS Missoula, MT

Home | Current Version | Previous Version | Text Only | Print | Product List | Glossary On
Versions: 1 2 3 4 5 6 7 8 9 10 11 12 13 14 15 16 17 18 19 20 21 22 23 24 25 26 27 28 29 30 31 32 33 34 35 36 37 38 39 40 41 42 43 44 45 46 47 48 49 50
000
SXUS55 KMSO 201423
OSOMSO
MONTANA AWOS SUMMARY
NATIONAL WEATHER SERVICE MISSOULA MT
823 AM MDT WED AUG 20 2014

Montana AWOS Reports

PLAINS      |KS34 201355Z AUTO 00000KT 25SM 14/12 A2988 RMK AO1 T01390122
LAUREL      |K6S8 201415Z AUTO 00000KT 25SM 20/08 A2984 RMK AO1 T02000078
ROUNDUP     |KRPX 201415Z AUTO 00000KT 25SM 19/07 A2975 RMK AO1 T01890072




USA.gov is the U.S. government's official web portal to all federal, state and local government web resources and services.